createdAt,value
2022-12-05T00:01:26.068Z,9.48
2022-12-05T00:03:55.410Z,8.27
2022-12-05T00:06:23.144Z,8.10
2022-12-05T00:08:50.317Z,8.60
2022-12-05T00:11:20.038Z,7.20
2022-12-05T00:13:48.413Z,6.53
2022-12-05T00:16:18.018Z,6.17
2022-12-05T00:18:45.551Z,6.30
2022-12-05T00:21:17.245Z,8.03
2022-12-05T00:23:44.562Z,14.77
2022-12-05T00:26:11.755Z,8.93
2022-12-05T00:28:39.523Z,9.27
2022-12-05T00:31:09.439Z,7.30
2022-12-05T00:33:36.796Z,7.70
2022-12-05T00:36:13.465Z,7.07
2022-12-05T00:38:41.542Z,9.63
2022-12-05T00:41:10.750Z,9.10
2022-12-05T00:43:37.998Z,9.45
2022-12-05T00:46:07.127Z,8.70
2022-12-05T00:48:35.624Z,9.45
2022-12-05T00:51:05.936Z,11.45
2022-12-05T00:53:33.796Z,6.43
2022-12-05T00:56:12.651Z,12.32
2022-12-05T00:58:39.883Z,17.43
2022-12-05T01:01:11.154Z,10.43
2022-12-05T01:03:38.576Z,21.07
2022-12-05T01:06:06.435Z,17.63
2022-12-05T01:08:34.802Z,10.33
2022-12-05T01:11:01.547Z,7.57
2022-12-05T01:13:29.185Z,7.17
2022-12-05T01:15:55.890Z,8.60
2022-12-05T01:18:23.573Z,6.83
2022-12-05T01:20:51.259Z,7.70
2022-12-05T01:23:18.282Z,7.13
2022-12-05T01:25:47.900Z,7.57
2022-12-05T01:28:15.889Z,8.17
2022-12-05T01:30:47.974Z,7.63
2022-12-05T01:33:14.707Z,6.83
2022-12-05T01:35:41.940Z,7.97
2022-12-05T01:38:10.667Z,6.57
2022-12-05T01:40:37.810Z,6.37
2022-12-05T01:43:06.701Z,6.40
2022-12-05T01:45:39.613Z,8.43
2022-12-05T01:48:11.463Z,7.00
2022-12-05T01:50:38.608Z,7.07
2022-12-05T01:53:05.682Z,5.25
2022-12-05T01:55:34.480Z,5.90
2022-12-05T01:58:02.560Z,6.50
2022-12-05T02:00:29.335Z,7.03
2022-12-05T02:02:59.432Z,6.80
2022-12-05T02:05:30.219Z,13.90
2022-12-05T02:07:59.374Z,6.50
2022-12-05T02:10:27.972Z,9.73
2022-12-05T02:12:55.103Z,8.75
2022-12-05T02:15:21.690Z,8.83
2022-12-05T02:17:57.265Z,9.20
2022-12-05T02:20:41.033Z,9.03
2022-12-05T02:23:18.526Z,9.07
2022-12-05T02:25:45.235Z,8.70
2022-12-05T02:28:44.548Z,8.43
2022-12-05T02:31:18.701Z,9.83
2022-12-05T02:33:56.996Z,6.80
2022-12-05T02:36:45.590Z,7.83
2022-12-05T02:39:40.818Z,7.93
2022-12-05T02:42:19.955Z,7.97
2022-12-05T02:45:10.128Z,7.57
2022-12-05T02:47:42.452Z,9.93
2022-12-05T02:50:12.380Z,9.87
2022-12-05T02:52:39.965Z,9.77
2022-12-05T02:55:08.618Z,11.40
2022-12-05T02:57:37.675Z,11.53
2022-12-05T03:00:05.312Z,11.17
2022-12-05T03:02:34.902Z,10.93
2022-12-05T03:05:41.057Z,9.15
2022-12-05T03:10:42.250Z,10.13
2022-12-05T03:13:16.203Z,10.33
2022-12-05T03:15:48.092Z,9.47
2022-12-05T03:18:21.637Z,10.73
2022-12-05T03:20:54.623Z,10.90
2022-12-05T03:23:26.558Z,10.20
2022-12-05T03:26:20.928Z,9.13
2022-12-05T03:28:51.026Z,8.27
2022-12-05T03:31:23.809Z,8.40
2022-12-05T03:33:55.329Z,8.77
2022-12-05T03:36:33.220Z,10.60
2022-12-05T03:39:18.631Z,7.23
2022-12-05T03:41:55.905Z,10.40
2022-12-05T03:44:37.681Z,10.77
2022-12-05T03:47:11.030Z,9.63
2022-12-05T03:49:45.956Z,6.90
2022-12-05T03:54:46.756Z,12.13
2022-12-05T03:57:22.350Z,12.33
2022-12-05T03:59:57.782Z,12.00
2022-12-05T04:02:28.443Z,9.57
2022-12-05T04:05:02.016Z,9.30
2022-12-05T04:07:32.787Z,9.37
2022-12-05T04:10:06.095Z,9.17
2022-12-05T04:12:36.452Z,7.50
2022-12-05T04:15:10.795Z,9.17
2022-12-05T04:17:43.483Z,7.90
2022-12-05T04:20:36.239Z,7.60
2022-12-05T04:23:03.713Z,7.50
2022-12-05T04:25:39.649Z,8.87
2022-12-05T04:28:24.998Z,8.33
2022-12-05T04:33:46.895Z,10.03
2022-12-05T04:36:22.497Z,9.70
2022-12-05T04:38:54.407Z,7.13
2022-12-05T04:41:33.953Z,8.30
2022-12-05T04:44:06.181Z,9.57
2022-12-05T04:46:34.013Z,8.10
2022-12-05T04:49:05.706Z,9.20
2022-12-05T04:51:35.442Z,9.57
2022-12-05T04:54:21.358Z,12.07
2022-12-05T04:56:54.529Z,11.53
2022-12-05T04:59:23.462Z,9.30
2022-12-05T05:01:55.785Z,8.63
2022-12-05T05:04:29.976Z,12.80
2022-12-05T05:06:57.120Z,12.20
2022-12-05T05:09:23.759Z,11.37
2022-12-05T05:11:51.500Z,10.43
2022-12-05T05:14:18.153Z,10.80
2022-12-05T05:16:44.963Z,12.03
2022-12-05T05:19:12.196Z,12.40
2022-12-05T05:21:41.335Z,12.57
2022-12-05T05:24:10.751Z,12.73
2022-12-05T05:26:40.924Z,13.20
2022-12-05T05:29:07.949Z,15.07
2022-12-05T05:31:35.466Z,17.37
2022-12-05T05:34:09.131Z,17.17
2022-12-05T05:36:36.656Z,15.40
2022-12-05T05:39:05.462Z,13.23
2022-12-05T05:41:34.387Z,12.20
2022-12-05T05:44:01.924Z,11.80
2022-12-05T05:46:31.907Z,12.43
2022-12-05T05:49:01.835Z,21.73
2022-12-05T05:51:29.540Z,12.67
2022-12-05T05:53:57.455Z,11.43
2022-12-05T05:56:24.226Z,12.90
2022-12-05T05:59:00.228Z,15.00
2022-12-05T06:01:27.920Z,16.33
2022-12-05T06:03:54.809Z,14.90
2022-12-05T06:06:22.481Z,15.63
2022-12-05T06:08:49.215Z,21.83
2022-12-05T06:11:27.319Z,13.40
2022-12-05T06:14:01.278Z,21.63
2022-12-05T06:16:30.087Z,16.10
2022-12-05T06:18:57.312Z,20.03
2022-12-05T06:21:24.447Z,15.20
2022-12-05T06:23:51.574Z,22.83
2022-12-05T06:26:20.529Z,22.30
2022-12-05T06:28:47.963Z,14.20
2022-12-05T06:31:20.089Z,14.50
2022-12-05T06:33:47.739Z,18.83
2022-12-05T06:36:17.054Z,15.77
2022-12-05T06:38:43.962Z,17.17
2022-12-05T06:41:15.498Z,16.67
2022-12-05T06:43:43.275Z,11.07
2022-12-05T06:46:12.147Z,12.57
2022-12-05T06:48:39.607Z,13.33
2022-12-05T06:51:10.194Z,15.17
2022-12-05T06:53:37.175Z,16.43
2022-12-05T06:56:08.216Z,15.27
2022-12-05T06:58:34.931Z,12.53
2022-12-05T07:01:20.321Z,10.47
2022-12-05T07:03:49.192Z,15.73
2022-12-05T07:06:17.007Z,13.23
2022-12-05T07:08:44.978Z,16.43
2022-12-05T07:11:11.943Z,13.53
2022-12-05T07:13:38.659Z,13.47
2022-12-05T07:16:07.436Z,14.23
2022-12-05T07:18:35.568Z,17.77
2022-12-05T07:21:12.284Z,12.03
2022-12-05T07:23:40.560Z,13.77
2022-12-05T07:26:09.161Z,12.40
2022-12-05T07:28:36.115Z,12.27
2022-12-05T07:31:05.248Z,11.13
2022-12-05T07:33:31.922Z,12.47
2022-12-05T07:36:17.003Z,10.97
2022-12-05T07:38:44.746Z,27.60
2022-12-05T07:41:17.161Z,14.70
2022-12-05T07:43:43.883Z,14.40
2022-12-05T07:46:13.902Z,22.97
2022-12-05T07:48:41.013Z,16.43
2022-12-05T07:51:10.345Z,19.97
2022-12-05T07:53:38.582Z,12.80
2022-12-05T07:56:07.189Z,15.97
2022-12-05T07:58:35.553Z,14.60
2022-12-05T08:01:10.650Z,10.83
2022-12-05T08:03:38.308Z,11.10
2022-12-05T08:06:10.187Z,11.77
2022-12-05T08:08:37.366Z,12.93
2022-12-05T08:11:06.410Z,12.53
2022-12-05T08:13:33.675Z,12.83
2022-12-05T08:16:02.632Z,12.70
2022-12-05T08:18:29.391Z,12.17
2022-12-05T08:20:56.036Z,13.40
2022-12-05T08:23:22.984Z,14.90
2022-12-05T08:25:49.674Z,14.67
2022-12-05T08:28:16.342Z,13.60
2022-12-05T08:30:43.125Z,15.07
2022-12-05T08:33:09.788Z,14.40
2022-12-05T08:35:37.941Z,15.70
2022-12-05T08:38:04.594Z,16.03
2022-12-05T08:40:31.465Z,13.63
2022-12-05T08:42:58.297Z,11.07
2022-12-05T08:45:24.947Z,12.60
2022-12-05T08:47:51.597Z,8.73
2022-12-05T08:50:18.429Z,11.50
2022-12-05T08:52:45.300Z,10.83
2022-12-05T08:55:11.966Z,12.07
2022-12-05T08:57:38.602Z,11.23
2022-12-05T09:00:06.903Z,11.00
2022-12-05T09:02:34.182Z,12.03
2022-12-05T09:05:19.138Z,11.27
2022-12-05T09:07:47.583Z,9.90
2022-12-05T09:10:14.448Z,8.60
2022-12-05T09:12:41.174Z,7.73
2022-12-05T09:15:09.289Z,8.37
2022-12-05T09:17:35.996Z,10.43
2022-12-05T09:20:03.147Z,11.93
2022-12-05T09:22:29.826Z,8.83
2022-12-05T09:24:56.844Z,8.93
2022-12-05T09:27:23.730Z,9.10
2022-12-05T09:29:50.373Z,9.43
2022-12-05T09:32:17.059Z,8.73
2022-12-05T09:34:43.800Z,10.23
2022-12-05T09:37:37.086Z,9.83
2022-12-05T09:39:57.125Z,10.15
2022-12-05T09:42:36.890Z,9.47
2022-12-05T09:45:09.827Z,9.60
2022-12-05T09:48:00.187Z,12.23
2022-12-05T09:50:30.315Z,13.73
2022-12-05T09:53:14.884Z,14.97
2022-12-05T09:55:44.253Z,12.23
2022-12-05T09:58:43.216Z,13.55
2022-12-05T10:01:34.923Z,12.10
2022-12-05T10:04:04.298Z,11.83
2022-12-05T10:06:39.245Z,11.60
2022-12-05T10:11:54.781Z,7.47
2022-12-05T10:14:56.492Z,10.20
2022-12-05T10:17:28.872Z,11.57
2022-12-05T10:19:59.670Z,9.83
2022-12-05T10:22:46.123Z,11.27
2022-12-05T10:25:17.423Z,16.30
2022-12-05T10:27:50.934Z,13.10
2022-12-05T10:30:18.704Z,13.83
2022-12-05T10:33:11.693Z,12.13
2022-12-05T10:35:40.756Z,9.97
2022-12-05T10:38:10.280Z,7.77
2022-12-05T10:40:43.479Z,8.90
2022-12-05T10:43:14.487Z,8.90
2022-12-05T10:45:46.940Z,5.37
2022-12-05T10:48:17.491Z,5.47
2022-12-05T10:50:48.669Z,5.43
2022-12-05T10:53:19.889Z,7.13
2022-12-05T10:56:21.560Z,6.00
2022-12-05T10:58:34.727Z,6.93
2022-12-05T11:01:10.165Z,10.02
2022-12-05T11:03:39.594Z,13.20
2022-12-05T11:06:25.505Z,11.47
2022-12-05T11:09:04.548Z,10.57
2022-12-05T11:11:33.674Z,8.93
2022-12-05T11:14:02.129Z,7.80
2022-12-05T11:16:39.214Z,9.70
2022-12-05T11:19:27.802Z,11.13
2022-12-05T11:21:55.393Z,8.83
2022-12-05T11:24:27.074Z,17.57
2022-12-05T11:26:54.054Z,9.33
2022-12-05T11:29:39.446Z,16.43
2022-12-05T11:34:39.880Z,26.03
2022-12-05T11:37:25.263Z,14.88
2022-12-05T11:39:52.479Z,7.60
2022-12-05T11:42:31.835Z,9.23
2022-12-05T11:45:13.506Z,17.35
2022-12-05T11:48:00.340Z,9.27
2022-12-05T11:50:46.257Z,8.20
2022-12-05T11:53:31.324Z,7.38
2022-12-05T11:56:03.978Z,8.10
2022-12-05T11:58:57.283Z,7.80
2022-12-05T12:02:08.434Z,8.00
2022-12-05T12:04:50.039Z,14.90
2022-12-05T12:07:23.092Z,12.50
2022-12-05T12:10:09.962Z,11.80
2022-12-05T12:12:49.388Z,11.63
2022-12-05T12:15:42.976Z,10.38
2022-12-05T12:18:39.599Z,9.65
2022-12-05T12:21:40.699Z,25.30
2022-12-05T12:24:16.474Z,16.38
2022-12-05T12:26:46.072Z,13.53
2022-12-05T12:29:50.484Z,13.05
2022-12-05T12:32:33.970Z,9.60
2022-12-05T12:35:19.997Z,10.05
2022-12-05T12:38:18.750Z,9.02
2022-12-05T12:40:53.198Z,8.95
2022-12-05T12:43:54.343Z,8.90
2022-12-05T12:46:46.467Z,8.00
2022-12-05T12:49:15.880Z,7.35
2022-12-05T12:51:53.483Z,7.68
2022-12-05T12:55:13.790Z,9.90
2022-12-05T12:57:49.761Z,10.70
2022-12-05T13:00:24.475Z,9.02
2022-12-05T13:03:00.664Z,7.80
2022-12-05T13:05:36.253Z,9.50
2022-12-05T13:08:16.433Z,6.82
2022-12-05T13:10:45.561Z,9.82
2022-12-05T13:13:20.911Z,9.73
2022-12-05T13:16:00.921Z,10.23
2022-12-05T13:18:28.035Z,11.10
2022-12-05T13:20:58.782Z,16.77
2022-12-05T13:23:31.277Z,22.10
2022-12-05T13:26:00.425Z,14.27
2022-12-05T13:28:31.656Z,14.20
2022-12-05T13:31:03.901Z,13.63
2022-12-05T13:33:34.676Z,13.00
2022-12-05T13:36:30.030Z,11.10
2022-12-05T13:39:22.215Z,10.52
2022-12-05T13:42:11.164Z,11.82
2022-12-05T13:44:45.539Z,18.25
2022-12-05T13:47:54.296Z,17.77
2022-12-05T13:50:34.129Z,20.20
2022-12-05T13:53:23.576Z,19.67
2022-12-05T13:56:02.908Z,23.58
2022-12-05T13:58:47.943Z,30.95
2022-12-05T14:01:26.929Z,44.35
2022-12-05T14:03:57.291Z,31.63
2022-12-05T14:06:39.009Z,33.03
2022-12-05T14:09:12.225Z,26.17
2022-12-05T14:11:38.892Z,20.02
2022-12-05T14:14:10.183Z,21.27
2022-12-05T14:16:44.504Z,21.85
2022-12-05T14:19:40.982Z,21.83
2022-12-05T14:22:22.870Z,24.40
2022-12-05T14:25:05.086Z,24.63
2022-12-05T14:27:50.814Z,23.15
2022-12-05T14:30:25.758Z,20.55
2022-12-05T14:35:29.090Z,35.90
2022-12-05T14:38:01.255Z,24.33
2022-12-05T14:40:36.653Z,20.02
2022-12-05T14:43:26.484Z,25.02
2022-12-05T14:45:53.154Z,23.60
2022-12-05T14:48:20.352Z,23.63
2022-12-05T14:50:49.569Z,25.88
2022-12-05T14:53:27.858Z,26.52
2022-12-05T14:56:02.204Z,25.55
2022-12-05T14:58:52.293Z,27.63
2022-12-05T15:01:31.215Z,24.73
2022-12-05T15:04:03.170Z,22.08
2022-12-05T15:06:32.130Z,32.15
2022-12-05T15:09:35.314Z,27.77
2022-12-05T15:11:52.348Z,33.28
2022-12-05T15:14:22.732Z,21.95
2022-12-05T15:16:54.101Z,19.77
2022-12-05T15:19:30.345Z,27.58
2022-12-05T15:22:00.454Z,28.75
2022-12-05T15:24:27.615Z,23.90
2022-12-05T15:26:56.896Z,20.27
2022-12-05T15:29:26.517Z,18.85
2022-12-05T15:31:54.460Z,20.70
2022-12-05T15:34:45.224Z,21.15
2022-12-05T15:37:15.515Z,36.83
2022-12-05T15:40:00.299Z,23.40
2022-12-05T15:42:37.076Z,25.63
2022-12-05T15:45:15.561Z,31.50
2022-12-05T15:48:08.006Z,31.02
2022-12-05T15:50:41.238Z,17.20
2022-12-05T15:53:23.208Z,27.85
2022-12-05T15:56:01.957Z,29.63
2022-12-05T15:58:43.880Z,40.17
2022-12-05T16:01:19.915Z,46.50
2022-12-05T16:03:59.937Z,27.85
2022-12-05T16:06:40.423Z,28.80
2022-12-05T16:09:13.361Z,26.63
2022-12-05T16:11:40.492Z,24.35
2022-12-05T16:14:08.388Z,25.88
2022-12-05T16:16:39.005Z,25.30
2022-12-05T16:19:16.090Z,25.70
2022-12-05T16:21:46.633Z,26.52
2022-12-05T16:24:19.241Z,27.80
2022-12-05T16:27:14.456Z,31.90
2022-12-05T16:29:41.435Z,33.78
2022-12-05T16:32:34.823Z,34.58
2022-12-05T16:35:01.580Z,25.60
2022-12-05T16:37:30.286Z,25.05
2022-12-05T16:39:57.586Z,26.63
2022-12-05T16:42:29.137Z,30.38
2022-12-05T16:45:02.335Z,31.85
2022-12-05T16:47:41.693Z,32.85
2022-12-05T16:50:29.419Z,26.17
2022-12-05T16:53:02.305Z,126.93
2022-12-05T16:55:33.106Z,49.95
2022-12-05T16:58:03.431Z,36.83
2022-12-05T17:00:31.482Z,38.78
2022-12-05T17:03:18.417Z,36.85
2022-12-05T17:05:44.924Z,41.78
2022-12-05T17:08:11.728Z,44.10
2022-12-05T17:10:39.570Z,39.35
2022-12-05T17:13:06.978Z,40.85
2022-12-05T17:15:36.144Z,38.80
2022-12-05T17:18:11.842Z,34.70
2022-12-05T17:20:41.580Z,34.92
2022-12-05T17:23:14.352Z,45.15
2022-12-05T17:25:53.533Z,43.13
2022-12-05T17:28:21.318Z,54.17
2022-12-05T17:30:48.221Z,56.88
2022-12-05T17:33:17.240Z,49.20
2022-12-05T17:35:44.553Z,47.67
2022-12-05T17:38:12.213Z,51.75
2022-12-05T17:40:39.546Z,52.33
2022-12-05T17:43:06.650Z,49.90
2022-12-05T17:45:33.695Z,53.47
2022-12-05T17:48:00.436Z,53.13
2022-12-05T17:50:28.016Z,50.65
2022-12-05T17:52:56.872Z,50.30
2022-12-05T17:55:28.807Z,50.72
2022-12-05T17:57:56.027Z,42.83
2022-12-05T18:00:24.451Z,43.55
2022-12-05T18:02:52.580Z,33.08
2022-12-05T18:05:19.460Z,27.33
2022-12-05T18:07:47.056Z,36.38
2022-12-05T18:10:19.882Z,35.65
2022-12-05T18:12:47.448Z,38.25
2022-12-05T18:15:15.247Z,41.75
2022-12-05T18:17:42.438Z,55.30
2022-12-05T18:20:12.349Z,77.90
2022-12-05T18:22:39.054Z,51.72
2022-12-05T18:25:06.613Z,52.38
2022-12-05T18:27:35.303Z,57.33
2022-12-05T18:30:03.790Z,61.10
2022-12-05T18:32:30.671Z,62.97
2022-12-05T18:34:59.125Z,57.33
2022-12-05T18:37:28.191Z,52.28
2022-12-05T18:39:56.473Z,43.53
2022-12-05T18:42:23.358Z,43.97
2022-12-05T18:44:50.165Z,44.70
2022-12-05T18:47:16.945Z,44.63
2022-12-05T18:49:43.751Z,45.05
2022-12-05T18:52:10.576Z,44.15
2022-12-05T18:54:37.560Z,49.47
2022-12-05T18:57:04.317Z,36.38
2022-12-05T18:59:31.099Z,38.15
2022-12-05T19:02:00.540Z,40.92
2022-12-05T19:04:28.847Z,40.88
2022-12-05T19:06:58.825Z,41.50
2022-12-05T19:09:28.906Z,41.70
2022-12-05T19:11:58.073Z,40.45
2022-12-05T19:14:26.459Z,51.13
2022-12-05T19:16:59.986Z,59.15
2022-12-05T19:19:28.341Z,48.60
2022-12-05T19:21:55.537Z,52.75
2022-12-05T19:24:22.388Z,54.45
2022-12-05T19:26:49.135Z,40.65
2022-12-05T19:29:16.675Z,66.75
2022-12-05T19:31:43.960Z,42.03
2022-12-05T19:34:10.995Z,37.80
2022-12-05T19:36:42.271Z,32.92
2022-12-05T19:39:26.669Z,35.63
2022-12-05T19:41:55.266Z,30.67
2022-12-05T19:44:21.948Z,29.13
2022-12-05T19:46:49.254Z,28.08
2022-12-05T19:49:17.318Z,29.23
2022-12-05T19:51:44.417Z,30.67
2022-12-05T19:54:13.978Z,24.40
2022-12-05T19:56:41.052Z,27.70
2022-12-05T19:59:07.767Z,21.95
2022-12-05T20:01:40.360Z,29.30
2022-12-05T20:04:10.098Z,27.27
2022-12-05T20:06:42.638Z,16.60
2022-12-05T20:09:10.791Z,21.13
2022-12-05T20:11:43.762Z,21.75
2022-12-05T20:14:12.811Z,21.08
2022-12-05T20:16:40.253Z,21.92
2022-12-05T20:19:07.456Z,19.65
2022-12-05T20:21:35.232Z,23.67
2022-12-05T20:24:03.884Z,17.17
2022-12-05T20:26:37.299Z,22.70
2022-12-05T20:29:05.734Z,23.17
2022-12-05T20:31:35.658Z,20.17
2022-12-05T20:34:02.829Z,19.35
2022-12-05T20:36:32.191Z,23.05
2022-12-05T20:39:01.950Z,19.73
2022-12-05T20:41:28.877Z,30.17
2022-12-05T20:43:57.799Z,36.15
2022-12-05T20:46:25.296Z,37.28
2022-12-05T20:48:53.306Z,38.35
2022-12-05T20:51:25.323Z,37.67
2022-12-05T20:53:52.305Z,34.22
2022-12-05T20:56:28.371Z,30.90
2022-12-05T20:58:57.648Z,30.85
2022-12-05T21:01:25.843Z,29.40
2022-12-05T21:03:53.547Z,31.60
2022-12-05T21:06:26.277Z,34.15
2022-12-05T21:08:54.388Z,34.97
2022-12-05T21:11:22.327Z,32.63
2022-12-05T21:13:49.189Z,37.13
2022-12-05T21:16:19.246Z,35.25
2022-12-05T21:18:46.879Z,32.28
2022-12-05T21:21:19.004Z,31.13
2022-12-05T21:23:47.822Z,41.13
2022-12-05T21:26:17.363Z,37.80
2022-12-05T21:28:45.588Z,40.72
2022-12-05T21:31:14.591Z,40.10
2022-12-05T21:33:43.068Z,42.15
2022-12-05T21:36:10.422Z,39.88
2022-12-05T21:38:37.068Z,41.00
2022-12-05T21:41:04.819Z,38.17
2022-12-05T21:43:33.265Z,38.03
2022-12-05T21:46:00.016Z,39.10
2022-12-05T21:48:26.761Z,38.33
2022-12-05T21:50:54.125Z,36.17
2022-12-05T21:53:21.492Z,36.92
2022-12-05T21:55:48.432Z,35.92
2022-12-05T21:58:15.669Z,35.50
2022-12-05T22:00:43.026Z,37.65
2022-12-05T22:03:14.619Z,43.45
2022-12-05T22:05:41.355Z,41.55
2022-12-05T22:08:08.401Z,31.65
2022-12-05T22:10:35.622Z,30.95
2022-12-05T22:13:02.403Z,25.52
2022-12-05T22:15:29.112Z,22.30
2022-12-05T22:17:55.787Z,28.77
2022-12-05T22:20:22.780Z,28.40
2022-12-05T22:22:49.407Z,36.15
2022-12-05T22:25:16.172Z,28.45
2022-12-05T22:27:42.854Z,26.98
2022-12-05T22:30:09.959Z,26.20
2022-12-05T22:32:36.582Z,30.58
2022-12-05T22:35:04.541Z,49.88
2022-12-05T22:37:31.776Z,32.38
2022-12-05T22:39:59.008Z,29.27
2022-12-05T22:42:27.414Z,29.53
2022-12-05T22:44:54.070Z,28.70
2022-12-05T22:47:20.757Z,28.13
2022-12-05T22:49:47.514Z,28.07
2022-12-05T22:52:14.914Z,27.05
2022-12-05T22:54:43.879Z,26.50
2022-12-05T22:57:10.525Z,28.33
2022-12-05T22:59:37.293Z,28.27
2022-12-05T23:02:04.009Z,29.23
2022-12-05T23:04:30.763Z,26.80
2022-12-05T23:06:57.412Z,27.63
2022-12-05T23:09:24.020Z,27.50
2022-12-05T23:11:50.728Z,28.50
2022-12-05T23:14:17.420Z,29.42
2022-12-05T23:16:44.295Z,29.70
2022-12-05T23:19:11.041Z,28.15
2022-12-05T23:21:40.118Z,28.42
2022-12-05T23:24:09.315Z,28.23
2022-12-05T23:26:39.607Z,32.10
2022-12-05T23:29:06.670Z,32.83
2022-12-05T23:31:33.937Z,31.85
2022-12-05T23:34:03.642Z,33.83
2022-12-05T23:36:32.404Z,34.20
2022-12-05T23:38:59.406Z,33.05
2022-12-05T23:41:26.434Z,31.92
2022-12-05T23:43:53.946Z,31.53
2022-12-05T23:46:24.791Z,29.87
2022-12-05T23:48:52.639Z,30.30
2022-12-05T23:51:22.507Z,30.30
2022-12-05T23:53:54.210Z,28.50
2022-12-05T23:56:24.628Z,38.00
2022-12-05T23:58:51.882Z,32.22
